Time;durP1;ratioP1;P1;durP2;ratioP2;P2;SDS_P1;SDS_P2;PMS_P1;PMS_P2;Temp;Humidity;BMP_temperature;BMP_pressure;BME280_temperature;BME280_humidity;BME280_pressure;Samples;Min_cycle;Max_cycle;Signal;HPM_P1;HPM_P2
2023/06/10 00:02:27;;;;;;;12.37;6.30;;;19.90;99.90;;;20.23;68.94;94594.81;5051083;28;20459;-68
2023/06/10 00:04:55;;;;;;;7.17;5.60;;;19.80;99.90;;;20.17;68.92;94591.16;5054267;28;20499;-60
2023/06/10 00:07:23;;;;;;;14.43;6.07;;;19.80;99.90;;;20.15;69.29;94589.69;5049905;28;20456;-60
2023/06/10 00:09:51;;;;;;;8.00;5.90;;;19.70;99.90;;;20.10;69.52;94590.31;5050030;28;21006;-69
2023/06/10 00:12:20;;;;;;;8.53;6.60;;;19.70;99.90;;;20.08;69.83;94586.19;5047788;28;20455;-68
2023/06/10 00:14:49;;;;;;;8.57;6.03;;;19.60;99.90;;;20.05;69.86;94580.25;5052316;28;20583;-69
2023/06/10 00:17:17;;;;;;;10.20;5.83;;;19.60;99.90;;;20.03;69.93;94586.81;5052895;28;20478;-60
2023/06/10 00:19:46;;;;;;;14.03;5.43;;;19.60;99.90;;;20.02;70.06;94580.66;5053777;28;20476;-60
2023/06/10 00:22:14;;;;;;;17.93;6.87;;;19.60;99.90;;;20.00;70.04;94577.38;5054886;28;20447;-69
2023/06/10 00:24:43;;;;;;;16.70;6.07;;;19.60;99.90;;;19.99;70.24;94582.94;5051889;28;20467;-60
2023/06/10 00:27:10;;;;;;;8.50;6.37;;;19.50;99.90;;;19.97;70.09;94582.28;5053062;28;21000;-60
2023/06/10 00:29:38;;;;;;;17.17;6.20;;;19.50;99.90;;;19.96;70.37;94591.34;5052000;28;20464;-60
2023/06/10 00:32:07;;;;;;;8.00;6.07;;;19.50;99.90;;;19.92;70.34;94577.56;5051612;28;20717;-60
2023/06/10 00:34:35;;;;;;;11.87;7.23;;;19.50;99.90;;;19.87;70.30;94585.38;5052508;28;20533;-66
2023/06/10 00:37:03;;;;;;;17.10;6.50;;;19.50;99.90;;;19.76;70.13;94577.97;5052822;28;20510;-59
2023/06/10 00:39:30;;;;;;;12.20;6.17;;;19.40;99.90;;;19.67;70.49;94585.31;5062295;28;20987;-67
2023/06/10 00:41:59;;;;;;;12.53;6.60;;;19.30;99.90;;;19.56;70.61;94588.59;5050510;28;20473;-68
2023/06/10 00:44:26;;;;;;;6.60;6.00;;;19.20;99.90;;;19.47;71.23;94587.94;5055042;28;20472;-59
2023/06/10 00:46:55;;;;;;;10.70;5.83;;;19.10;99.90;;;19.44;71.75;94586.53;5053949;28;21259;-59
2023/06/10 00:49:23;;;;;;;7.63;6.27;;;19.10;99.90;;;19.45;71.70;94590.81;5057037;28;20555;-68
2023/06/10 00:51:50;;;;;;;8.40;6.37;;;19.10;99.90;;;19.48;71.88;94600.28;5054887;28;20458;-69
2023/06/10 00:54:18;;;;;;;12.47;6.00;;;19.00;99.90;;;19.51;72.39;94591.88;5054099;28;20478;-59
2023/06/10 00:56:45;;;;;;;9.40;6.50;;;19.10;99.90;;;19.55;71.94;94595.78;5052330;28;20498;-60
2023/06/10 00:59:15;;;;;;;7.30;6.60;;;19.10;99.90;;;19.57;72.07;94601.72;5049774;28;20470;-60
2023/06/10 01:01:46;;;;;;;7.27;6.53;;;19.10;99.90;;;19.61;72.37;94607.47;5050430;28;20451;-60
2023/06/10 01:04:14;;;;;;;12.13;7.10;;;19.20;99.90;;;19.63;72.67;94602.78;5049750;28;20480;-68
2023/06/10 01:06:57;;;;;;;10.90;7.20;;;19.20;99.90;;;19.65;73.07;94604.22;5053563;28;20466;-67
2023/06/10 01:09:30;;;;;;;16.03;7.70;;;19.20;99.90;;;19.68;73.48;94605.66;5051400;28;20883;-61
2023/06/10 01:12:03;;;;;;;14.73;6.97;;;19.20;99.90;;;19.71;73.66;94607.91;5048205;28;20452;-68
2023/06/10 01:14:32;;;;;;;9.03;7.13;;;19.30;99.90;;;19.74;73.86;94606.69;5051140;28;20566;-60
2023/06/10 01:17:01;;;;;;;8.10;5.53;;;19.30;99.90;;;19.75;74.17;94603.00;5048119;28;20498;-60
2023/06/10 01:19:30;;;;;;;12.30;6.50;;;19.30;99.90;;;19.76;73.64;94604.63;5053171;28;20481;-68
2023/06/10 01:22:00;;;;;;;6.90;6.30;;;19.40;99.90;;;19.77;73.90;94598.28;5050341;28;20487;-61
2023/06/10 01:24:28;;;;;;;7.67;6.00;;;19.30;99.90;;;19.77;73.77;94596.47;5054214;28;20478;-69
2023/06/10 01:26:55;;;;;;;9.57;6.63;;;19.30;99.90;;;19.79;74.10;94593.59;5060653;28;20451;-68
2023/06/10 01:29:26;;;;;;;7.47;6.30;;;19.40;99.90;;;19.79;74.20;94593.59;5054629;28;20487;-68
2023/06/10 01:31:56;;;;;;;9.33;6.60;;;19.40;99.90;;;19.79;74.21;94588.25;5050058;28;20521;-60
2023/06/10 01:34:24;;;;;;;7.77;5.70;;;19.40;99.90;;;19.78;73.73;94586.59;5052623;28;20472;-68
2023/06/10 01:36:51;;;;;;;8.90;6.30;;;19.40;99.90;;;19.78;74.01;94581.25;5052143;28;20490;-60
2023/06/10 01:39:23;;;;;;;8.33;5.30;;;19.40;99.90;;;19.78;73.87;94576.75;5046610;28;20562;-68
2023/06/10 01:41:50;;;;;;;5.60;5.00;;;19.40;99.90;;;19.78;73.31;94579.41;5047633;28;20467;-69
2023/06/10 01:44:19;;;;;;;6.10;5.53;;;19.40;99.90;;;19.78;73.62;94575.94;5046453;28;20637;-68
2023/06/10 01:46:47;;;;;;;5.47;4.93;;;19.40;99.90;;;19.79;73.37;94569.56;5054289;28;20447;-59
2023/06/10 01:49:14;;;;;;;7.17;5.27;;;19.40;99.90;;;19.79;73.41;94582.91;5048773;28;20563;-59
2023/06/10 01:51:42;;;;;;;6.87;6.00;;;19.40;99.90;;;19.78;73.59;94582.06;5054282;28;20448;-59
2023/06/10 01:54:09;;;;;;;11.50;6.23;;;19.30;99.90;;;19.78;73.64;94573.25;5051451;28;20537;-60
2023/06/10 01:56:38;;;;;;;7.47;6.23;;;19.30;99.90;;;19.78;73.61;94575.94;5048763;28;20568;-61
2023/06/10 01:59:05;;;;;;;8.53;5.90;;;19.40;99.90;;;19.78;73.81;94579.41;5048092;28;20467;-69
2023/06/10 02:01:32;;;;;;;6.73;6.07;;;19.30;99.90;;;19.77;73.67;94574.28;5052352;28;20452;-68
2023/06/10 02:03:59;;;;;;;6.47;5.87;;;19.40;99.90;;;19.75;74.09;94571.81;5051682;28;20472;-70
2023/06/10 02:06:27;;;;;;;7.30;5.80;;;19.40;99.90;;;19.74;73.29;94564.81;5054416;28;21030;-60
2023/06/10 02:08:54;;;;;;;6.43;5.47;;;19.30;99.90;;;19.70;73.46;94564.41;5049889;28;20558;-69
2023/06/10 02:11:21;;;;;;;5.43;5.03;;;19.30;99.90;;;19.68;73.30;94566.44;5049604;28;20463;-68
2023/06/10 02:13:50;;;;;;;6.30;5.70;;;19.30;99.90;;;19.67;73.60;94563.97;5049827;28;20528;-69
2023/06/10 02:16:18;;;;;;;12.73;5.77;;;19.30;99.90;;;19.67;73.65;94562.16;5050785;28;20506;-60
2023/06/10 02:18:46;;;;;;;7.13;6.30;;;19.30;99.90;;;19.67;74.45;94562.16;5050111;28;20482;-69
2023/06/10 02:21:13;;;;;;;12.23;6.37;;;19.20;99.90;;;19.66;74.22;94557.81;5050010;28;20516;-68
2023/06/10 02:23:40;;;;;;;14.00;6.90;;;19.30;99.90;;;19.63;74.44;94558.25;5049502;28;20462;-60
2023/06/10 02:26:08;;;;;;;17.90;6.33;;;19.20;99.90;;;19.62;74.07;94556.59;5048321;28;20463;-60
2023/06/10 02:28:35;;;;;;;6.57;5.83;;;19.20;99.90;;;19.60;73.94;94555.97;5052662;28;20958;-60
2023/06/10 02:31:04;;;;;;;11.70;6.37;;;19.20;99.90;;;19.60;73.88;94557.84;5051478;28;20464;-68
2023/06/10 02:33:33;;;;;;;7.20;6.10;;;19.20;99.90;;;19.57;74.39;94551.03;5050539;28;20474;-70
2023/06/10 02:36:00;;;;;;;10.27;6.57;;;19.10;99.90;;;19.57;75.02;94548.38;5049773;28;20545;-61
2023/06/10 02:38:28;;;;;;;6.60;5.63;;;19.20;99.90;;;19.58;75.30;94539.34;5051309;28;20460;-60
2023/06/10 02:40:55;;;;;;;14.00;7.60;;;19.20;99.90;;;19.59;75.52;94540.16;5048120;28;20490;-59
2023/06/10 02:43:22;;;;;;;6.97;6.37;;;19.20;99.90;;;19.57;75.00;94545.72;5049266;28;20466;-59
2023/06/10 02:45:50;;;;;;;13.37;7.40;;;19.10;99.90;;;19.59;75.12;94540.97;5052097;28;20537;-68
2023/06/10 02:48:18;;;;;;;11.80;7.20;;;19.20;99.90;;;19.58;74.47;94539.34;5049487;28;20530;-59
2023/06/10 02:50:45;;;;;;;7.67;6.50;;;19.10;99.90;;;19.56;75.14;94537.91;5057586;28;20540;-68
2023/06/10 02:53:13;;;;;;;7.47;6.87;;;19.20;99.90;;;19.55;74.91;94539.78;5048860;28;20539;-68
2023/06/10 02:55:40;;;;;;;8.77;6.33;;;19.20;99.90;;;19.53;75.33;94539.13;5052415;28;20572;-68
2023/06/10 02:58:08;;;;;;;10.50;7.23;;;19.20;99.90;;;19.55;75.21;94549.59;5051440;28;20992;-61
2023/06/10 03:00:35;;;;;;;7.20;6.50;;;19.10;99.90;;;19.56;75.96;94552.06;5054362;28;20577;-60
2023/06/10 03:03:04;;;;;;;8.27;7.30;;;19.20;99.90;;;19.58;76.23;94550.03;5053660;28;20570;-59
2023/06/10 03:05:33;;;;;;;9.50;7.23;;;19.20;99.90;;;19.59;76.27;94561.50;5049280;28;21018;-59
2023/06/10 03:08:01;;;;;;;7.90;7.20;;;19.20;99.90;;;19.61;75.80;94564.78;5050745;28;20486;-67
2023/06/10 03:10:28;;;;;;;8.70;7.63;;;19.20;99.90;;;19.61;76.04;94568.31;5052921;28;20471;-69
2023/06/10 03:12:55;;;;;;;8.80;6.40;;;19.20;99.90;;;19.63;76.34;94568.91;5055635;28;20666;-68
2023/06/10 03:15:24;;;;;;;8.03;6.97;;;19.20;99.90;;;19.62;76.29;94564.59;5056379;28;20524;-68
2023/06/10 03:17:51;;;;;;;12.67;7.13;;;19.20;99.90;;;19.61;76.17;94570.97;5054594;28;20498;-68
2023/06/10 03:20:18;;;;;;;13.23;7.40;;;19.20;99.90;;;19.62;76.31;94577.94;5053991;28;20562;-68
2023/06/10 03:22:47;;;;;;;9.00;7.03;;;19.20;99.90;;;19.62;76.02;94582.47;5053438;28;20484;-60
2023/06/10 03:25:14;;;;;;;11.20;7.10;;;19.20;99.90;;;19.61;76.23;94584.31;5054929;28;20475;-59
2023/06/10 03:27:42;;;;;;;8.00;7.20;;;19.20;99.90;;;19.61;76.21;94580.78;5053999;28;20482;-67
2023/06/10 03:30:12;;;;;;;7.10;6.43;;;19.20;99.90;;;19.58;76.16;94582.03;5055692;28;20471;-60
2023/06/10 03:32:40;;;;;;;10.43;7.03;;;19.20;99.90;;;19.59;76.63;94582.84;5058486;28;20550;-69
2023/06/10 03:35:09;;;;;;;13.10;6.73;;;19.20;99.90;;;19.55;76.47;94579.78;5056095;28;20477;-60
2023/06/10 03:37:36;;;;;;;13.70;7.00;;;19.20;99.90;;;19.59;76.59;94586.34;5051856;28;20496;-68
2023/06/10 03:40:08;;;;;;;7.60;6.30;;;19.20;99.90;;;19.60;76.70;94582.66;5060599;28;20840;-67
2023/06/10 03:42:35;;;;;;;7.47;5.87;;;19.20;99.90;;;19.61;76.68;94575.47;5055600;28;20464;-69
2023/06/10 03:45:03;;;;;;;11.77;7.17;;;19.20;99.90;;;19.61;76.51;94564.78;5050155;28;20487;-60
2023/06/10 03:47:35;;;;;;;8.73;6.70;;;19.20;99.90;;;19.61;76.74;94570.13;5050656;28;20505;-61
2023/06/10 03:50:03;;;;;;;12.73;6.00;;;19.20;99.90;;;19.61;76.43;94570.13;5051863;28;20504;-61
2023/06/10 03:52:30;;;;;;;6.63;5.93;;;19.20;99.90;;;19.62;76.35;94571.78;5053963;28;20462;-68
2023/06/10 03:54:58;;;;;;;11.53;6.20;;;19.20;99.90;;;19.61;76.57;94562.13;5051881;28;20486;-68
2023/06/10 03:57:26;;;;;;;13.40;6.27;;;19.20;99.90;;;19.61;76.72;94567.47;5053200;28;21042;-69
2023/06/10 03:59:55;;;;;;;9.20;6.70;;;19.20;99.90;;;19.60;76.01;94565.84;5053349;28;20554;-58
2023/06/10 04:02:22;;;;;;;13.63;7.20;;;19.20;99.90;;;19.59;76.15;94562.31;5049319;28;20996;-60
2023/06/10 04:04:50;;;;;;;10.33;7.00;;;19.20;99.90;;;19.59;76.14;94573.00;5051756;28;20505;-67
2023/06/10 04:07:18;;;;;;;13.40;6.50;;;19.20;99.90;;;19.60;76.43;94580.00;5052268;28;20459;-59
2023/06/10 04:09:46;;;;;;;8.40;7.13;;;19.20;99.90;;;19.60;76.64;94584.50;5048208;28;20572;-60
2023/06/10 04:12:14;;;;;;;7.23;5.83;;;19.20;99.90;;;19.60;76.66;94584.50;5048188;28;20452;-68
2023/06/10 04:14:43;;;;;;;10.20;6.63;;;19.20;99.90;;;19.61;76.45;94586.97;5049084;28;21007;-59
2023/06/10 04:17:10;;;;;;;8.77;6.07;;;19.20;99.90;;;19.61;76.49;94589.66;5050242;28;20555;-60
2023/06/10 04:19:38;;;;;;;10.43;7.17;;;19.20;99.90;;;19.64;76.46;94591.06;5053220;28;20554;-68
2023/06/10 04:22:06;;;;;;;8.63;6.77;;;19.20;99.90;;;19.64;76.55;94581.25;5052567;28;20461;-68
2023/06/10 04:24:33;;;;;;;9.20;6.70;;;19.20;99.90;;;19.65;76.80;94582.84;5052311;28;20644;-60
2023/06/10 04:27:00;;;;;;;10.73;6.30;;;19.30;99.90;;;19.67;76.94;94574.66;5051298;28;20525;-61
2023/06/10 04:29:28;;;;;;;9.23;6.00;;;19.30;99.90;;;19.70;77.05;94579.59;5046723;28;20548;-69
2023/06/10 04:31:57;;;;;;;13.50;7.20;;;19.30;99.90;;;19.71;76.98;94570.56;5052573;28;20959;-69
2023/06/10 04:34:25;;;;;;;14.63;7.27;;;19.30;99.90;;;19.71;76.65;94576.72;5055301;28;20484;-68
2023/06/10 04:36:52;;;;;;;9.93;7.40;;;19.30;99.90;;;19.75;76.96;94582.47;5052676;28;20487;-69
2023/06/10 04:39:20;;;;;;;5.93;5.30;;;19.40;99.90;;;19.78;76.24;94578.59;5050534;28;20562;-70
2023/06/10 04:41:47;;;;;;;6.80;6.10;;;19.40;99.90;;;19.80;76.55;94576.53;5049967;28;20958;-70
2023/06/10 04:44:14;;;;;;;7.73;5.50;;;19.40;99.90;;;19.85;75.99;94582.09;5048578;28;20476;-58
2023/06/10 04:46:42;;;;;;;14.03;6.60;;;19.40;99.90;;;19.89;76.36;94583.31;5050674;28;20827;-67
2023/06/10 04:49:10;;;;;;;9.90;6.33;;;19.50;99.90;;;19.93;76.18;94579.22;5048963;28;20583;-60
2023/06/10 04:51:38;;;;;;;9.13;6.20;;;19.50;99.90;;;19.99;75.91;94580.25;5056179;28;20521;-61
2023/06/10 04:54:05;;;;;;;9.23;6.10;;;19.60;99.90;;;20.04;76.01;94578.59;5054639;28;20558;-61
2023/06/10 04:56:32;;;;;;;8.57;6.17;;;19.60;99.90;;;20.09;75.85;94577.16;5047445;28;20462;-68
2023/06/10 04:59:00;;;;;;;8.77;5.70;;;19.60;99.90;;;20.12;75.70;94574.91;5050299;28;20493;-61
2023/06/10 05:01:27;;;;;;;5.93;5.13;;;19.70;99.90;;;20.15;75.01;94576.34;5053179;28;20459;-68
2023/06/10 05:03:55;;;;;;;7.13;5.43;;;19.70;99.90;;;20.17;75.47;94582.28;5052555;28;20479;-59
2023/06/10 05:06:23;;;;;;;7.10;5.37;;;19.80;99.90;;;20.18;75.27;94575.94;5053895;28;20844;-68
2023/06/10 05:08:51;;;;;;;6.00;5.50;;;19.80;99.90;;;20.20;75.06;94579.22;5047108;28;20479;-59
2023/06/10 05:11:18;;;;;;;6.00;5.50;;;19.80;99.90;;;20.21;74.72;94575.50;5047751;28;20459;-67
2023/06/10 05:13:46;;;;;;;10.93;5.70;;;19.80;99.90;;;20.20;74.64;94580.03;5056623;28;21018;-68
2023/06/10 05:16:14;;;;;;;7.50;5.20;;;19.80;99.90;;;20.20;74.61;94582.72;5050109;28;20448;-59
2023/06/10 05:18:42;;;;;;;5.80;5.40;;;19.80;99.90;;;20.20;74.07;94582.72;5050171;28;20491;-59
2023/06/10 05:21:09;;;;;;;5.77;5.27;;;19.80;99.90;;;20.21;74.45;94579.00;5050808;28;20448;-67
2023/06/10 05:23:38;;;;;;;8.17;6.07;;;19.80;99.90;;;20.22;74.49;94577.97;5048727;28;20970;-68
2023/06/10 05:26:05;;;;;;;6.33;5.77;;;19.80;99.90;;;20.27;73.94;94588.03;5051678;28;20463;-59
2023/06/10 05:28:33;;;;;;;6.57;5.97;;;19.80;99.90;;;20.30;74.08;94587.63;5050722;28;20455;-68
2023/06/10 05:31:00;;;;;;;7.00;6.30;;;19.90;99.90;;;20.34;74.24;94586.19;5047540;28;20439;-68
2023/06/10 05:33:27;;;;;;;6.13;5.70;;;19.90;99.90;;;20.40;74.22;94592.53;5056315;28;20447;-69
2023/06/10 05:35:55;;;;;;;6.20;5.60;;;20.00;99.90;;;20.45;74.67;94589.25;5053606;28;20455;-60
2023/06/10 05:38:22;;;;;;;6.67;4.87;;;20.00;99.90;;;20.49;74.29;94593.16;5061152;28;20487;-66
2023/06/10 05:40:51;;;;;;;7.67;6.20;;;20.10;99.90;;;20.55;73.74;94598.47;5053638;28;20464;-59
2023/06/10 05:43:18;;;;;;;9.53;5.70;;;20.10;99.90;;;20.63;73.81;94594.75;5053394;28;20455;-60
2023/06/10 05:45:45;;;;;;;11.63;5.83;;;20.20;99.90;;;20.70;74.03;94592.94;5057414;28;20466;-60
2023/06/10 05:48:13;;;;;;;13.70;6.93;;;20.30;99.90;;;20.80;73.38;94600.50;5050132;28;20455;-61
2023/06/10 05:50:42;;;;;;;5.73;5.10;;;20.40;99.90;;;20.88;72.81;94591.44;5057170;28;20463;-70
2023/06/10 05:53:14;;;;;;;12.77;5.73;;;20.40;99.90;;;20.97;72.79;94598.19;5055295;28;20462;-67
2023/06/10 05:55:42;;;;;;;5.50;5.00;;;20.50;99.90;;;21.08;72.35;94591.38;5052444;28;20490;-61
2023/06/10 05:58:12;;;;;;;6.10;5.60;;;20.60;99.90;;;21.17;72.30;94589.28;5055919;28;20487;-59
2023/06/10 06:00:39;;;;;;;7.83;5.30;;;20.70;99.90;;;21.26;72.16;94593.38;5049417;28;20529;-66
2023/06/10 06:03:08;;;;;;;13.50;5.90;;;20.80;99.90;;;21.32;71.52;94600.53;5053069;28;20462;-60
2023/06/10 06:05:37;;;;;;;9.10;5.40;;;20.80;99.90;;;21.38;71.18;94590.81;5050592;28;20504;-68
2023/06/10 06:08:05;;;;;;;6.93;6.00;;;20.90;99.90;;;21.42;71.01;94594.72;5047983;28;20470;-59
2023/06/10 06:10:32;;;;;;;8.13;6.13;;;21.00;99.90;;;21.48;70.83;94600.03;5049228;28;20805;-70
2023/06/10 06:12:59;;;;;;;6.10;5.60;;;21.00;99.90;;;21.59;70.72;94605.78;5054546;28;20467;-60
2023/06/10 06:15:28;;;;;;;11.77;7.10;;;21.10;99.90;;;21.66;70.49;94603.88;5050776;28;21110;-72
2023/06/10 06:17:55;;;;;;;8.13;5.93;;;21.20;99.90;;;21.74;70.60;94606.28;5053639;28;20487;-68
2023/06/10 06:20:23;;;;;;;7.27;6.60;;;21.30;99.90;;;21.85;70.25;94608.28;5055018;28;21114;-59
2023/06/10 06:22:50;;;;;;;8.73;6.80;;;21.40;99.90;;;21.94;70.50;94611.53;5049655;28;20463;-59
2023/06/10 06:25:18;;;;;;;8.40;5.87;;;21.40;99.90;;;22.02;70.27;94610.44;5056753;28;20478;-73
2023/06/10 06:27:45;;;;;;;8.43;5.80;;;21.60;99.90;;;22.08;69.65;94612.25;5055068;28;21027;-60
2023/06/10 06:30:13;;;;;;;11.53;6.60;;;21.60;99.90;;;22.15;70.08;94610.34;5049915;28;20483;-60
2023/06/10 06:32:42;;;;;;;10.90;7.53;;;21.70;99.90;;;22.25;69.44;94612.53;5056811;28;20458;-60
2023/06/10 06:35:10;;;;;;;7.50;6.23;;;21.80;99.90;;;22.31;69.41;94608.19;5061264;28;20483;-66
2023/06/10 06:37:37;;;;;;;9.60;6.93;;;21.80;99.90;;;22.38;68.94;94606.25;5056012;28;20487;-70
2023/06/10 06:40:06;;;;;;;10.20;6.77;;;21.90;99.90;;;22.47;68.31;94604.13;5051374;28;20468;-61
2023/06/10 06:42:33;;;;;;;6.47;5.63;;;22.00;99.90;;;22.55;68.50;94601.97;5058947;28;20459;-60
2023/06/10 06:45:01;;;;;;;10.57;6.90;;;22.10;99.90;;;22.63;68.20;94600.84;5058557;28;20906;-68
2023/06/10 06:47:28;;;;;;;6.17;5.67;;;22.10;99.90;;;22.70;67.85;94600.81;5053487;28;20517;-61
2023/06/10 06:49:57;;;;;;;8.33;6.23;;;22.20;99.90;;;22.79;67.43;94591.44;5060393;28;20467;-61
2023/06/10 06:52:25;;;;;;;9.20;6.27;;;22.30;99.90;;;22.89;67.09;94590.91;5056899;28;21374;-68
2023/06/10 06:54:52;;;;;;;6.63;5.67;;;22.40;99.90;;;22.97;66.69;94592.47;5055159;28;20661;-67
2023/06/10 06:57:20;;;;;;;11.10;5.33;;;22.50;99.90;;;23.06;66.58;94591.13;5057743;28;20493;-61
2023/06/10 06:59:47;;;;;;;9.00;6.20;;;22.60;99.90;;;23.12;66.86;94590.25;5059382;28;20552;-71
2023/06/10 07:02:14;;;;;;;6.50;5.20;;;22.60;99.90;;;23.26;66.73;94582.88;5056645;28;20451;-69
2023/06/10 07:04:41;;;;;;;11.37;5.60;;;22.80;99.90;;;23.41;66.05;94588.66;5059271;28;20476;-67
2023/06/10 07:07:10;;;;;;;6.30;5.70;;;22.90;99.90;;;23.63;66.37;94588.97;5054719;28;20511;-61
2023/06/10 07:09:38;;;;;;;5.50;5.10;;;23.10;99.90;;;23.97;65.93;94580.47;5053176;28;20995;-73
2023/06/10 07:12:07;;;;;;;5.47;5.00;;;23.40;99.90;;;24.25;63.80;94579.00;5051774;28;20575;-65
2023/06/10 07:14:34;;;;;;;14.30;5.57;;;23.60;99.90;;;24.39;63.82;94576.91;5053495;28;20855;-66
2023/06/10 07:17:01;;;;;;;10.27;4.77;;;23.80;99.90;;;24.61;62.92;94572.59;5059752;28;20455;-60
2023/06/10 07:19:29;;;;;;;5.90;5.23;;;24.00;99.90;;;24.97;62.42;94567.16;5059198;28;20502;-72
2023/06/10 07:21:56;;;;;;;5.93;5.33;;;24.30;99.90;;;25.39;61.65;94565.09;5055399;28;20960;-62
2023/06/10 07:24:25;;;;;;;6.97;4.80;;;24.70;99.90;;;25.86;60.53;94565.94;5063038;28;20482;-64
2023/06/10 07:26:52;;;;;;;4.87;3.73;;;25.10;99.90;;;26.28;58.79;94573.66;5055687;28;20517;-68
2023/06/10 07:29:20;;;;;;;9.03;4.10;;;25.50;99.90;;;26.64;57.60;94563.41;5055910;28;20471;-70
2023/06/10 07:31:47;;;;;;;6.70;4.50;;;25.90;99.90;;;26.84;56.15;94577.19;5054157;28;20447;-69
2023/06/10 07:34:15;;;;;;;5.10;4.60;;;26.20;99.70;;;27.01;55.94;94571.75;5049695;28;20668;-60
2023/06/10 07:36:43;;;;;;;8.53;3.87;;;26.30;99.00;;;27.16;55.73;94578.44;5053636;28;20451;-68
2023/06/10 07:39:10;;;;;;;5.63;4.50;;;26.50;98.80;;;27.27;55.45;94572.09;5052526;28;20501;-68
2023/06/10 07:41:40;;;;;;;6.67;4.27;;;26.60;98.70;;;27.36;53.96;94573.31;5055014;28;20929;-61
2023/06/10 07:44:07;;;;;;;4.80;4.30;;;26.70;97.40;;;27.50;54.63;94570.22;5051072;28;20471;-61
2023/06/10 07:46:34;;;;;;;8.40;4.73;;;26.90;97.30;;;27.71;54.10;94571.25;5058501;28;20481;-62
2023/06/10 07:49:02;;;;;;;13.60;4.17;;;27.00;97.00;;;27.91;52.74;94571.44;5054822;28;20501;-69
2023/06/10 07:51:29;;;;;;;9.00;4.17;;;27.30;96.00;;;28.18;52.07;94567.94;5049826;28;20452;-70
2023/06/10 07:53:57;;;;;;;9.20;4.63;;;27.50;95.50;;;28.35;51.57;94564.25;5057340;28;20482;-60
2023/06/10 07:56:26;;;;;;;34.80;4.90;;;27.70;94.60;;;28.48;51.48;94563.84;5054903;28;20505;-62
2023/06/10 07:58:55;;;;;;;9.27;4.20;;;27.80;94.00;;;28.69;51.36;94564.81;5056344;28;20499;-61
2023/06/10 08:01:24;;;;;;;5.60;3.90;;;28.00;93.70;;;28.92;50.12;94558.19;5058602;28;20541;-72
2023/06/10 08:03:51;;;;;;;7.83;3.63;;;28.20;93.20;;;29.18;50.28;94563.72;5056078;28;20554;-69
2023/06/10 08:06:18;;;;;;;3.70;3.50;;;28.50;92.50;;;29.25;48.78;94564.31;5059373;28;20446;-60
2023/06/10 08:08:51;;;;;;;5.13;4.63;;;28.60;91.00;;;29.16;49.01;94563.16;5046915;28;20474;-66
2023/06/10 08:11:18;;;;;;;11.20;4.23;;;28.60;90.80;;;29.03;48.28;94552.81;5056350;28;20997;-70
2023/06/10 08:13:46;;;;;;;5.07;3.60;;;28.50;90.50;;;29.00;49.15;94559.56;5058596;28;20478;-72
2023/06/10 08:16:15;;;;;;;4.33;3.37;;;28.50;90.40;;;28.97;49.00;94558.22;5059090;28;20474;-60
2023/06/10 08:18:42;;;;;;;7.70;3.30;;;28.40;90.10;;;29.08;48.10;94550.13;5053807;28;20486;-68
2023/06/10 08:21:10;;;;;;;4.23;3.10;;;28.50;90.20;;;29.31;48.85;94549.72;5055063;28;20466;-68
2023/06/10 08:23:37;;;;;;;5.03;3.70;;;28.60;90.00;;;29.59;48.22;94550.34;5053657;28;20552;-68
2023/06/10 08:26:04;;;;;;;4.90;3.97;;;28.90;89.50;;;29.88;47.11;94547.16;5061977;28;21008;-67
2023/06/10 08:28:32;;;;;;;3.60;3.30;;;29.10;88.40;;;30.13;46.80;94545.56;5055593;28;20474;-61
2023/06/10 08:30:59;;;;;;;4.93;3.87;;;29.40;87.20;;;30.33;46.13;94540.13;5060409;28;20444;-70
2023/06/10 08:33:28;;;;;;;5.47;3.57;;;29.70;86.20;;;30.56;46.21;94546.91;5058275;28;20300;-70
2023/06/10 08:35:55;;;;;;;4.43;3.47;;;29.90;84.70;;;30.84;45.47;94543.88;5057916;28;20311;-69
2023/06/10 08:38:23;;;;;;;11.97;4.20;;;30.20;82.80;;;31.08;44.37;94538.69;5059499;28;20610;-68
2023/06/10 08:40:50;;;;;;;3.17;2.97;;;30.30;80.60;;;31.22;43.80;94530.75;5051955;28;20516;-69
2023/06/10 08:43:25;;;;;;;4.73;3.27;;;30.60;79.00;;;31.20;43.76;94541.06;5062637;28;20261;-60
2023/06/10 08:45:53;;;;;;;3.87;3.50;;;30.60;78.00;;;31.22;43.95;94531.56;5055729;28;20665;-60
2023/06/10 08:48:21;;;;;;;4.50;3.00;;;30.60;77.30;;;31.24;43.59;94534.81;5061750;28;20703;-61
2023/06/10 08:50:50;;;;;;;3.77;3.43;;;30.60;76.40;;;31.19;43.14;94525.88;5051930;28;20189;-61
2023/06/10 08:53:19;;;;;;;3.83;3.13;;;30.60;75.00;;;30.94;42.70;94527.56;5055522;28;20262;-62
2023/06/10 08:55:51;;;;;;;3.90;3.43;;;30.40;73.50;;;30.73;42.85;94526.78;5057060;28;20278;-68
2023/06/10 08:58:18;;;;;;;2.80;2.60;;;30.20;73.80;;;30.66;42.70;94515.41;5059254;28;20226;-62
2023/06/10 09:00:45;;;;;;;6.17;2.80;;;30.10;73.10;;;30.69;43.36;94518.41;5058578;28;20225;-58
2023/06/10 09:03:13;;;;;;;3.70;3.27;;;30.10;73.50;;;30.85;43.02;94518.34;5058414;28;20204;-61
2023/06/10 09:05:40;;;;;;;3.40;3.20;;;30.20;73.70;;;31.03;42.55;94517.78;5057261;28;20745;-68
2023/06/10 09:08:10;;;;;;;3.63;3.00;;;30.40;72.90;;;31.18;41.52;94519.59;5052248;28;20204;-61
2023/06/10 09:10:37;;;;;;;6.20;3.50;;;30.50;71.30;;;31.28;41.86;94516.06;5055453;28;20301;-61
2023/06/10 09:13:04;;;;;;;3.40;3.20;;;30.60;70.80;;;31.41;41.82;94512.72;5048730;28;20819;-69
2023/06/10 09:15:32;;;;;;;3.97;3.60;;;30.70;71.00;;;31.65;41.03;94514.75;5054632;28;20281;-68
2023/06/10 09:18:00;;;;;;;5.45;3.58;;;30.90;69.90;;;31.75;41.06;94506.56;5053090;28;20303;-62
2023/06/10 09:20:27;;;;;;;5.35;2.67;;;31.10;69.30;;;31.84;39.96;94509.50;5052761;28;20252;-69
2023/06/10 09:22:55;;;;;;;3.25;2.45;;;31.10;66.40;;;31.94;39.80;94509.41;5055327;28;20650;-70
2023/06/10 09:25:36;;;;;;;3.67;2.70;;;31.20;66.40;;;32.06;38.23;94506.34;5054034;28;20223;-70
2023/06/10 09:28:05;;;;;;;6.50;2.55;;;31.30;63.90;;;32.14;38.66;94499.50;5055877;28;20286;-60
2023/06/10 09:30:33;;;;;;;2.45;2.35;;;31.40;63.10;;;32.27;38.81;94495.28;5055072;28;20739;-60
2023/06/10 09:33:02;;;;;;;2.60;2.40;;;31.60;63.30;;;32.39;38.60;94493.00;5054823;28;20253;-68
2023/06/10 09:35:30;;;;;;;8.35;2.72;;;31.70;62.40;;;32.50;38.11;94494.53;5053805;28;20231;-69
2023/06/10 09:37:59;;;;;;;3.33;2.83;;;31.80;61.50;;;32.60;37.44;94498.28;5055933;28;20200;-59
2023/06/10 09:40:28;;;;;;;3.17;2.88;;;31.90;60.60;;;32.68;36.94;94486.75;5053973;28;20747;-70
2023/06/10 09:42:57;;;;;;;3.00;2.35;;;32.00;59.80;;;32.79;37.29;94487.47;5056722;28;20231;-67
2023/06/10 09:45:24;;;;;;;2.35;2.15;;;32.10;59.70;;;32.87;37.18;94479.47;5055142;28;20217;-60
2023/06/10 09:47:55;;;;;;;2.30;2.20;;;32.20;59.40;;;32.96;36.42;94478.81;5050655;28;20250;-63
2023/06/10 09:50:23;;;;;;;4.57;2.53;;;32.30;58.70;;;33.03;36.92;94482.00;5050085;28;20306;-66
2023/06/10 09:52:51;;;;;;;3.20;2.97;;;32.40;59.10;;;33.08;35.18;94476.50;5053826;28;20189;-61
2023/06/10 09:55:19;;;;;;;2.83;2.42;;;32.40;56.30;;;33.08;35.88;94476.50;5050579;28;20274;-60
2023/06/10 09:57:50;;;;;;;2.65;2.45;;;32.40;56.90;;;33.02;34.86;94469.50;5052607;28;20728;-66
2023/06/10 10:00:18;;;;;;;3.42;3.13;;;32.40;55.70;;;33.05;35.43;94474.34;5052554;28;20710;-66
2023/06/10 10:02:47;;;;;;;4.18;2.85;;;32.40;55.80;;;33.09;35.79;94469.91;5057956;28;20269;-61
2023/06/10 10:05:15;;;;;;;4.65;2.47;;;32.40;56.10;;;33.08;35.47;94473.78;5050678;28;20232;-60
2023/06/10 10:07:43;;;;;;;7.43;2.85;;;32.50;56.30;;;32.99;35.68;94464.63;5059869;28;20216;-68
2023/06/10 10:10:11;;;;;;;5.25;3.05;;;32.40;56.50;;;32.87;35.75;94471.31;5053748;28;20232;-67
2023/06/10 10:12:39;;;;;;;2.72;2.38;;;32.30;56.20;;;32.67;35.13;94455.19;5054348;28;20246;-67
2023/06/10 10:15:10;;;;;;;2.92;2.80;;;32.10;55.10;;;32.39;35.62;94452.16;5048211;28;20220;-69
2023/06/10 10:17:40;;;;;;;16.38;6.05;;;31.90;55.40;;;32.30;36.01;94449.28;5054518;28;20212;-65
2023/06/10 10:20:08;;;;;;;2.20;2.10;;;31.80;56.20;;;32.42;35.51;94454.31;5053952;28;20232;-67
2023/06/10 10:22:39;;;;;;;6.82;2.22;;;31.80;55.70;;;32.53;35.52;94453.13;5055139;28;20209;-65